Weather History for Mammoth, CA

Change the Weather History Date:

Monday, July 22, 2013

  Actual Average Record
Temperature  
Mean Temperature 70 °F -  
Max Temperature 86 °F 77 °F 89 °F (2003)
Min Temperature 53 °F 64 °F 41 °F (2011)
Cooling Degree Days 4    
Growing Degree Days 20 (Base 50)    
Moisture  
Dew Point 45 °F    
Average Humidity 46    
Maximum Humidity 82    
Minimum Humidity 16    
Precipitation  
Precipitation 0.00 in - - ()
Sea Level Pressure  
Sea Level Pressure 30.28 in    
Wind  
Wind Speed 6 mph (SE)    
Max Wind Speed 21 mph    
Max Gust Speed 31 mph    
Visibility 10 miles    
Events      
Averages and records for this station are not official NWS values.
T = Trace of Precipitation, MM = Missing Value Source: NWS Daily Summary

Daily Weather History Graph

Daily Weather History Graph

Search for Another Location

Airport:

Trip Planner

Search our weather history database for the weather conditions in past years. The results will help you decide how hot, cold, wet, or windy it might be!

Date:

Astronomy

Jul. 22, 2013 Rise Set
Actual Time 5:51 AM PDT 8:11 PM PDT
Civil Twilight 5:21 AM PDT 8:41 PM PDT
Nautical Twilight 4:44 AM PDT 9:18 PM PDT
Astronomical Twilight 4:04 AM PDT 9:58 PM PDT
Moon 8:03 PM PDT (7/22) 5:52 AM PDT (7/22)
Length of Visible Light 15h 20m
Length of Day
14h 20m
Full, 100% of the Moon is Illuminated
Jul 22
Full
Jul 29
Last Quarter
Aug 6
New
Aug 14
First Quarter
Aug 20
Full

Hourly Weather History & Observations

Time (PDT) Temp. Dew Point Humidity Pressure Visibility Wind Dir Wind Speed Gust Speed Precip Events Conditions
12:15 AM 60.8 °F 50.0 °F 68% 30.25 in 10.0 mi Calm Calm - N/A   Clear
12:35 AM 62.6 °F 50.0 °F 63% 30.24 in 10.0 mi Calm Calm - N/A   Clear
12:55 AM 62.6 °F 48.2 °F 59% 30.24 in 10.0 mi SE 4.6 mph - N/A   Clear
1:15 AM 64.4 °F 46.4 °F 52% 30.24 in 10.0 mi ESE 9.2 mph - N/A   Clear
1:35 AM 62.6 °F 48.2 °F 59% 30.25 in 10.0 mi ESE 10.4 mph - N/A   Clear
1:55 AM 64.4 °F 46.4 °F 52% 30.24 in 10.0 mi ESE 8.1 mph - N/A   Clear
2:15 AM 64.4 °F 44.6 °F 49% 30.24 in 10.0 mi ESE 6.9 mph - N/A   Clear
2:35 AM 60.8 °F 48.2 °F 63% 30.25 in 10.0 mi West 3.5 mph - N/A   Clear
2:55 AM 59.0 °F 50.0 °F 72% 30.25 in 10.0 mi Calm Calm - N/A   Clear
3:15 AM 59.0 °F 48.2 °F 67% 30.26 in 10.0 mi Calm Calm - N/A   Clear
3:35 AM 57.2 °F 48.2 °F 72% 30.26 in 10.0 mi Calm Calm - N/A   Clear
3:55 AM 57.2 °F 48.2 °F 72% 30.27 in 10.0 mi Calm Calm - N/A   Clear
4:15 AM 55.4 °F 48.2 °F 77% 30.27 in 10.0 mi Calm Calm - N/A   Clear
4:35 AM 53.6 °F 48.2 °F 82% 30.27 in 10.0 mi Calm Calm - N/A   Clear
4:55 AM 53.6 °F 48.2 °F 82% 30.27 in 10.0 mi Calm Calm - N/A   Clear
5:15 AM 53.6 °F 48.2 °F 82% 30.27 in 10.0 mi North 3.5 mph - N/A   Clear
5:35 AM 53.6 °F 46.4 °F 77% 30.27 in 10.0 mi Calm Calm - N/A   Scattered Clouds
5:55 AM 55.4 °F 46.4 °F 72% 30.27 in 10.0 mi Calm Calm - N/A   Clear
6:35 AM 55.4 °F 46.4 °F 72% 30.28 in 10.0 mi NW 4.6 mph - N/A   Clear
6:55 AM 59.0 °F 46.4 °F 63% 30.29 in 10.0 mi Calm Calm - N/A   Clear
7:35 AM 59.0 °F 50.0 °F 72% 30.29 in 10.0 mi NNW 3.5 mph - N/A   Clear
7:55 AM 60.8 °F 48.2 °F 63% 30.29 in 10.0 mi NW 4.6 mph - N/A   Clear
8:15 AM 66.2 °F 46.4 °F 49% 30.29 in 10.0 mi WNW 3.5 mph - N/A   Clear
8:35 AM 68.0 °F 44.6 °F 43% 30.30 in 10.0 mi North - - N/A   Clear
8:55 AM 69.8 °F 44.6 °F 40% 30.30 in 10.0 mi Calm Calm - N/A   Clear
9:15 AM 69.8 °F 48.2 °F 46% 30.29 in 10.0 mi SE 3.5 mph - N/A   Clear
9:35 AM 73.4 °F 46.4 °F 38% 30.29 in 10.0 mi SE 3.5 mph - N/A   Clear
9:55 AM 75.2 °F 46.4 °F 36% 30.29 in 10.0 mi SE 5.8 mph - N/A   Clear
10:15 AM 77.0 °F 46.4 °F 34% 30.29 in 10.0 mi ESE 8.1 mph - N/A   Clear
10:35 AM 77.0 °F 46.4 °F 34% 30.29 in 10.0 mi ESE 8.1 mph - N/A   Clear
10:55 AM 77.0 °F 44.6 °F 32% 30.29 in 10.0 mi ESE 8.1 mph - N/A   Clear
11:15 AM 80.6 °F 42.8 °F 26% 30.29 in 10.0 mi ESE 8.1 mph - N/A   Clear
11:35 AM 80.6 °F 44.6 °F 28% 30.29 in 10.0 mi SE 6.9 mph - N/A   Clear
11:55 AM 78.8 °F 42.8 °F 28% 30.29 in 10.0 mi ESE 11.5 mph 16.1 mph N/A   Clear
12:15 PM 78.8 °F 44.6 °F 30% 30.29 in 10.0 mi ESE 13.8 mph - N/A   Clear
12:35 PM 78.8 °F 42.8 °F 28% 30.29 in 10.0 mi East 9.2 mph - N/A   Clear
12:55 PM 78.8 °F 44.6 °F 30% 30.28 in 10.0 mi ESE 13.8 mph - N/A   Scattered Clouds
1:15 PM 78.8 °F 48.2 °F 34% 30.28 in 10.0 mi ESE 12.7 mph 19.6 mph N/A   Scattered Clouds
1:35 PM 78.8 °F 48.2 °F 34% 30.28 in 10.0 mi ESE 11.5 mph 16.1 mph N/A   Scattered Clouds
1:55 PM 80.6 °F 46.4 °F 30% 30.27 in 10.0 mi ESE 10.4 mph - N/A   Clear
2:15 PM 80.6 °F 44.6 °F 28% 30.26 in 10.0 mi East 9.2 mph - N/A   Clear
2:35 PM 82.4 °F 41.0 °F 23% 30.26 in 10.0 mi East 8.1 mph - N/A   Clear
2:55 PM 86.0 °F 41.0 °F 20% 30.25 in 10.0 mi ESE 5.8 mph - N/A   Clear
3:15 PM 86.0 °F 37.4 °F 18% 30.24 in 10.0 mi SE 9.2 mph - N/A   Clear
3:35 PM 86.0 °F 37.4 °F 18% 30.24 in 10.0 mi East 9.2 mph - N/A   Scattered Clouds
3:55 PM 84.2 °F 33.8 °F 16% 30.24 in 10.0 mi SSE 16.1 mph 29.9 mph N/A   Scattered Clouds
4:15 PM 80.6 °F 35.6 °F 20% 30.24 in 10.0 mi ESE 11.5 mph 18.4 mph N/A   Mostly Cloudy
4:35 PM 78.8 °F 37.4 °F 23% 30.24 in 10.0 mi SE 17.3 mph 26.5 mph N/A   Mostly Cloudy
4:55 PM 78.8 °F 35.6 °F 21% 30.24 in 10.0 mi SE 11.5 mph 25.3 mph N/A   Mostly Cloudy
5:15 PM 78.8 °F 39.2 °F 24% 30.24 in 10.0 mi SE 13.8 mph 18.4 mph N/A   Scattered Clouds
5:35 PM 77.0 °F 37.4 °F 24% 30.24 in 10.0 mi SSE 18.4 mph 23.0 mph N/A   Mostly Cloudy
5:55 PM 77.0 °F 37.4 °F 24% 30.24 in 10.0 mi SE 8.1 mph - N/A   Mostly Cloudy
6:15 PM 71.6 °F 46.4 °F 41% 30.26 in 10.0 mi NW 20.7 mph 28.8 mph N/A   Mostly Cloudy
6:35 PM 68.0 °F 50.0 °F 52% 30.29 in 10.0 mi WNW 17.3 mph 31.1 mph N/A   Mostly Cloudy
6:55 PM 68.0 °F 50.0 °F 52% 30.29 in 10.0 mi WNW 12.7 mph 21.9 mph N/A   Overcast
7:15 PM 66.2 °F 50.0 °F 56% 30.29 in 10.0 mi WNW 13.8 mph - N/A   Overcast
7:35 PM 68.0 °F 48.2 °F 49% 30.28 in 10.0 mi WNW 13.8 mph 17.3 mph N/A   Overcast
7:55 PM 68.0 °F 48.2 °F 49% 30.29 in 10.0 mi NNW 8.1 mph - N/A   Overcast
8:15 PM 66.2 °F 48.2 °F 52% 30.30 in 10.0 mi West 9.2 mph - N/A   Mostly Cloudy
8:35 PM 66.2 °F 48.2 °F 52% 30.30 in 10.0 mi WNW 8.1 mph - N/A   Mostly Cloudy
8:55 PM 66.2 °F 46.4 °F 49% 30.33 in 10.0 mi NNW 6.9 mph - N/A   Overcast
9:15 PM 66.2 °F 42.8 °F 43% 30.36 in 10.0 mi NNW 3.5 mph 20.7 mph N/A   Mostly Cloudy
9:35 PM 66.2 °F 42.8 °F 43% 30.37 in 10.0 mi NW 6.9 mph - N/A   Clear
9:55 PM 66.2 °F 42.8 °F 43% 30.36 in 10.0 mi WSW 8.1 mph - N/A   Clear
10:15 PM 64.4 °F 42.8 °F 45% 30.36 in 10.0 mi West 11.5 mph - N/A   Scattered Clouds
10:35 PM 66.2 °F 42.8 °F 43% 30.35 in 10.0 mi West 11.5 mph 25.3 mph N/A   Scattered Clouds
10:55 PM 66.2 °F 42.8 °F 43% 30.35 in 10.0 mi WNW 13.8 mph 24.2 mph N/A   Mostly Cloudy
11:15 PM 64.4 °F 42.8 °F 45% 30.35 in 10.0 mi West 10.4 mph 16.1 mph N/A   Overcast
11:35 PM 62.6 °F 42.8 °F 48% 30.34 in 10.0 mi West 8.1 mph - N/A   Mostly Cloudy
11:55 PM 60.8 °F 44.6 °F 55% 30.33 in 10.0 mi West 6.9 mph - N/A   Scattered Clouds